Data for 02/28/2009

Time Sea-Level Adjusted Pressure Absolute Pressure Temperature Relative Humidity Dew Point   
(mb) (inHg) (mb) (inHg) (C) (F) (%) (C) (F)
00:05 1026 30.3 856 25.28 -8.7 16.3 73 -12.7 9.2
00:10 1026 30.3 856 25.28 -8.7 16.4 73 -12.7 9.1
00:15 1027 30.33 856 25.28 -8.8 16.3 73 -12.7 9.1
00:20 1027 30.33 856 25.28 -8.8 16.2 73 -12.8 9
00:25 1027 30.33 856 25.28 -8.7 16.3 73 -12.8 9
00:30 1027 30.33 856 25.28 -9 15.9 74 -12.8 8.9
00:35 1027 30.33 856 25.28 -9.1 15.7 74 -13 8.7
00:40 1027 30.33 856 25.28 -9.2 15.4 75 -12.9 8.9
00:45 1027 30.33 856 25.28 -9.5 14.9 75 -13.1 8.5
00:50 1027 30.33 856 25.28 -9.7 14.6 76 -13.1 8.4
00:55 1027 30.33 856 25.28 -9.7 14.5 75 -13.3 8.1
01:00 1027 30.33 856 25.28 -9.7 14.5 76 -13.2 8.2
01:05 1027 30.33 856 25.28 -9.8 14.5 76 -13.2 8.3
01:10 1027 30.33 856 25.28 -9.9 14.2 76 -13.3 8
01:15 1027 30.33 856 25.28 -9.8 14.3 77 -13.1 8.4
01:20 1027 30.33 856 25.28 -9.7 14.5 77 -13 8.7
01:25 1027 30.33 856 25.28 -9.5 14.9 77 -12.9 8.8
01:30 1027 30.33 857 25.31 -9.4 15 76 -12.9 8.8
01:35 1027 30.33 857 25.31 -9.4 15.2 76 -12.8 9
01:40 1027 30.33 857 25.31 -9.6 14.7 79 -12.7 9.2
01:45 1027 30.33 857 25.31 -10.2 13.7 78 -13.3 8
01:50 1027 30.33 857 25.31 -10.8 12.5 79 -13.9 7
01:55 1027 30.33 857 25.31 -10.7 12.8 83 -13.1 8.5
02:00 1027 30.33 857 25.31 -10.6 12.9 81 -13.3 8.1
02:05 1027 30.33 857 25.31 -10.7 12.8 79 -13.7 7.4
02:10 1027 30.33 857 25.31 -10.2 13.6 78 -13.4 7.8
02:15 1027 30.33 857 25.31 -10 13.9 76 -13.4 7.8
02:20 1027 30.33 857 25.31 -10.5 13.1 77 -13.8 7.2
02:25 1027 30.33 857 25.31 -10.5 13.2 77 -13.8 7.2
02:30 1027 30.33 857 25.31 -10.7 12.8 78 -13.8 7.2
02:35 1027 30.33 857 25.31 -10.8 12.5 78 -14 6.9
02:40 1027 30.33 857 25.31 -11.1 12.1 79 -14.1 6.7
02:45 1027 30.33 857 25.31 -11.2 11.9 79 -14.2 6.5
02:50 1027 30.33 857 25.31 -11.3 11.6 80 -14.1 6.6
02:55 1027 30.33 857 25.31 -11.5 11.3 81 -14.2 6.5
03:00 1027 30.33 857 25.31 -11.2 11.9 78 -14.2 6.4
03:05 1027 30.33 857 25.31 -10.8 12.5 78 -13.9 7
03:10 1027 30.33 856 25.28 -10.6 12.9 77 -13.9 7.1
03:15 1027 30.33 856 25.28 -10.5 13 76 -14 6.8
03:20 1027 30.33 857 25.31 -10.6 12.9 76 -14.1 6.6
03:25 1027 30.33 857 25.31 -10.8 12.7 76 -14.3 6.3
03:30 1027 30.33 857 25.31 -10.9 12.5 76 -14.3 6.3
03:35 1028 30.36 857 25.31 -10.9 12.3 77 -14.2 6.5
03:40 1028 30.36 857 25.31 -11.1 12.1 78 -14.2 6.4
03:45 1027 30.33 857 25.31 -10.4 13.3 74 -14.2 6.5
03:50 1028 30.36 857 25.31 -10.4 13.4 75 -14 6.9
03:55 1028 30.36 857 25.31 -10.1 13.8 73 -14.1 6.6
04:00 1028 30.36 857 25.31 -10.2 13.7 73 -14.2 6.5
04:05 1028 30.36 857 25.31 -10.4 13.3 74 -14.2 6.5
04:10 1028 30.36 857 25.31 -10.4 13.4 76 -13.8 7.1
04:15 1028 30.36 857 25.31 -10.3 13.4 76 -13.8 7.2
04:20 1028 30.36 857 25.31 -10.5 13.2 77 -13.8 7.1
04:25 1028 30.36 857 25.31 -10.2 13.7 75 -13.8 7.1
04:30 1028 30.36 857 25.31 -10.2 13.7 72 -14.3 6.2
04:35 1028 30.36 857 25.31 -10 14 72 -14.2 6.4
04:40 1027 30.33 857 25.31 -10.6 13 74 -14.4 6.1
04:45 1027 30.33 857 25.31 -11.1 12.1 75 -14.6 5.7
04:50 1028 30.36 857 25.31 -11.2 11.8 78 -14.4 6.2
04:55 1028 30.36 857 25.31 -10.5 13 75 -14.1 6.6
05:00 1028 30.36 857 25.31 -10.5 13.2 73 -14.4 6.1
05:05 1028 30.36 857 25.31 -10.7 12.8 73 -14.7 5.6
05:10 1028 30.36 857 25.31 -10.7 12.7 73 -14.6 5.6
05:15 1028 30.36 857 25.31 -10.4 13.3 71 -14.7 5.5
05:20 1028 30.36 857 25.31 -9.6 14.8 66 -14.8 5.4
05:25 1028 30.36 857 25.31 -8.9 16.1 64 -14.6 5.8
05:30 1028 30.36 857 25.31 -8.9 16 65 -14.3 6.2
05:35 1028 30.36 857 25.31 -9.6 14.8 67 -14.6 5.7
05:40 1028 30.36 857 25.31 -9.8 14.5 67 -14.8 5.3
05:45 1028 30.36 857 25.31 -10.2 13.7 68 -14.9 5.1
05:50 1027 30.33 857 25.31 -10.8 12.6 70 -15.2 4.6
05:55 1027 30.33 857 25.31 -10.8 12.6 70 -15.2 4.7
06:00 1027 30.33 857 25.31 -10.3 13.5 70 -14.8 5.4
06:05 1027 30.33 857 25.31 -10.7 12.7 72 -14.9 5.2
06:10 1028 30.36 857 25.31 -11.5 11.3 76 -14.9 5.1
06:15 1028 30.36 857 25.31 -11 12.2 73 -14.9 5.2
06:20 1028 30.36 857 25.31 -11.3 11.6 77 -14.5 5.8
06:25 1028 30.36 857 25.31 -10.8 12.6 74 -14.5 5.8
06:30 1028 30.36 857 25.31 -10 14 69 -14.7 5.5
06:35 1028 30.36 857 25.31 -9.7 14.5 67 -14.7 5.6
06:40 1028 30.36 857 25.31 -10.1 13.9 68 -14.9 5.2
06:45 1028 30.36 857 25.31 -10.7 12.8 72 -14.7 5.5
06:50 1028 30.36 857 25.31 -10.5 13.1 69 -15.2 4.7
06:55 1028 30.36 857 25.31 -10.3 13.5 67 -15.3 4.5
07:00 1028 30.36 857 25.31 -10.2 13.6 66 -15.4 4.3
07:05 1028 30.36 857 25.31 -10.2 13.7 66 -15.4 4.3
07:10 1028 30.36 857 25.31 -10.4 13.4 67 -15.3 4.5
07:15 1028 30.36 857 25.31 -10.8 12.6 69 -15.4 4.3
07:20 1028 30.36 857 25.31 -11.3 11.7 71 -15.6 4
07:25 1028 30.36 857 25.31 -11.9 10.5 72 -15.9 3.3
07:30 1028 30.36 857 25.31 -11.1 12 73 -15.1 4.8
07:35 1028 30.36 857 25.31 -10.1 13.8 71 -14.4 6
07:40 1028 30.36 857 25.31 -10.7 12.8 74 -14.4 6
07:45 1028 30.36 857 25.31 -10.4 13.3 72 -14.6 5.7
07:50 1028 30.36 857 25.31 -9.9 14.2 69 -14.5 5.9
07:55 1028 30.36 857 25.31 -9.6 14.8 68 -14.5 5.9
08:00 1028 30.36 857 25.31 -9.3 15.3 64 -14.8 5.3
08:05 1028 30.36 858 25.34 -8.7 16.4 65 -14.2 6.5
08:10 1029 30.39 858 25.34 -9.4 15.1 66 -14.6 5.7
08:15 1029 30.39 858 25.34 -8.8 16.2 61 -14.9 5.1
08:20 1029 30.39 858 25.34 -7.9 17.8 60 -14.5 6
08:25 1029 30.39 858 25.34 -7.5 18.6 59 -14.1 6.6
08:30 1029 30.39 858 25.34 -7.9 17.9 62 -14 6.8
08:35 1029 30.39 858 25.34 -8.8 16.1 65 -14.2 6.5
08:40 1029 30.39 858 25.34 -8.7 16.4 62 -14.8 5.3
08:45 1028 30.36 858 25.34 -8.7 16.4 64 -14.4 6.1
08:50 1028 30.36 858 25.34 -8.4 16.9 63 -14.3 6.2
08:55 1028 30.36 858 25.34 -7.9 17.7 60 -14.4 6.1
09:00 1028 30.36 858 25.34 -7.7 18.1 60 -14.3 6.3
09:05 1028 30.36 858 25.34 -7.7 18.2 60 -14.2 6.5
09:10 1028 30.36 858 25.34 -7 19.5 58 -14 6.9
09:15 1028 30.36 858 25.34 -6.6 20 57 -13.9 7.1
09:20 1028 30.36 858 25.34 -6.1 21.1 56 -13.5 7.6
09:25 1028 30.36 858 25.34 -6.5 20.3 57 -13.7 7.3
09:30 1028 30.36 858 25.34 -6.2 20.9 57 -13.4 7.9
09:35 1028 30.36 857 25.31 -5.6 21.9 54 -13.5 7.6
09:40 1028 30.36 857 25.31 -5 23 52 -13.4 7.9
09:45 1028 30.36 857 25.31 -5.1 22.9 55 -12.8 8.9
09:50 1028 30.36 857 25.31 -5 23.1 52 -13.3 8.1
09:55 1028 30.36 858 25.34 -4.2 24.4 49 -13.3 8.1
10:00 1028 30.36 858 25.34 -3.4 25.8 44 -13.9 6.9
10:05 1028 30.36 858 25.34 -3 26.7 45 -13.4 7.9
10:10 1029 30.39 858 25.34 -2.7 27.1 45 -13.2 8.3
10:15 1029 30.39 858 25.34 -2.3 27.8 43 -13.2 8.3
10:20 1029 30.39 858 25.34 -2.3 27.9 45 -12.7 9.1
10:25 1029 30.39 858 25.34 -2.2 28 44 -12.9 8.7
10:30 1029 30.39 858 25.34 -2 28.3 45 -12.6 9.3
10:35 1029 30.39 858 25.34 -2.5 27.6 44 -13.2 8.3
10:40 1029 30.39 858 25.34 -2.5 27.5 44 -13.1 8.4
10:45 1029 30.39 858 25.34 -2.5 27.5 49 -11.8 10.7
10:50 1029 30.39 858 25.34 -3 26.7 48 -12.5 9.6
10:55 1029 30.39 858 25.34 -2.4 27.7 46 -12.5 9.5
11:00 1029 30.39 858 25.34 -2.2 28 46 -12.3 9.8
11:05 1029 30.39 858 25.34 -2.2 28.1 46 -12.4 9.7
11:10 1029 30.39 858 25.34 -3.2 26.3 50 -12.3 9.8
11:15 1029 30.39 858 25.34 -3.9 25 53 -12.1 10.1
11:20 1029 30.39 858 25.34 -3 26.6 48 -12.6 9.3
11:25 1029 30.39 858 25.34 -2.2 28 46 -12.3 9.8
11:30 1029 30.39 858 25.34 -2 28.5 46 -12.2 10.1
11:35 1029 30.39 858 25.34 -1.9 28.6 47 -11.7 10.9
11:40 1029 30.39 858 25.34 -1.7 29 47 -11.6 11.1
11:45 1029 30.39 858 25.34 -1.3 29.7 46 -11.6 11.1
11:50 1029 30.39 858 25.34 -1.4 29.6 48 -11.1 12
11:55 1029 30.39 858 25.34 -1.6 29.1 45 -12 10.4
12:00 1029 30.39 858 25.34 -1.6 29.1 47 -11.4 11.5
12:05 1029 30.39 858 25.34 -1.6 29.1 49 -11 12.2
12:10 1029 30.39 858 25.34 -1.6 29.2 48 -11.2 11.9
12:15 1029 30.39 858 25.34 -1.7 28.9 48 -11.4 11.6
12:20 1029 30.39 858 25.34 -1.3 29.6 45 -11.7 10.9
12:25 1029 30.39 858 25.34 -0.9 30.4 44 -11.6 11.1
12:30 1029 30.39 858 25.34 -1 30.2 47 -11 12.2
12:35 1029 30.39 858 25.34 -1 30.2 48 -10.7 12.8
12:40 1029 30.39 858 25.34 -1.2 29.9 46 -11.4 11.6
12:45 1028 30.36 858 25.34 -1.4 29.5 47 -11.4 11.5
12:50 1028 30.36 858 25.34 -1 30.2 45 -11.6 11
12:55 1028 30.36 857 25.31 -0.8 30.5 45 -11.5 11.4
13:00 1028 30.36 857 25.31 -1 30.3 45 -11.6 11.2
13:05 1028 30.36 857 25.31 -0.8 30.6 45 -11.5 11.4
13:10 1028 30.36 857 25.31 -1.1 30.1 47 -11.1 12.1
13:15 1028 30.36 857 25.31 -0.8 30.5 45 -11.3 11.7
13:20 1028 30.36 857 25.31 -0.6 31 43 -11.7 10.9
13:25 1028 30.36 857 25.31 -0.7 30.8 44 -11.4 11.4
13:30 1028 30.36 857 25.31 -0.4 31.2 45 -11.1 12
13:35 1028 30.36 857 25.31 -0.6 30.9 44 -11.5 11.4
13:40 1028 30.36 857 25.31 -0.4 31.2 43 -11.6 11.1
13:45 1028 30.36 857 25.31 -0 32 44 -11 12.3
13:50 1028 30.36 857 25.31 0.2 32.4 41 -11.6 11.1
13:55 1028 30.36 857 25.31 -0 32 42 -11.4 11.5
14:00 1028 30.36 857 25.31 -0.4 31.3 43 -11.6 11.2
14:05 1028 30.36 857 25.31 0.1 32.3 40 -11.9 10.6
14:10 1028 30.36 857 25.31 1.1 34.1 39 -11.5 11.3
14:15 1028 30.36 857 25.31 0.2 32.4 41 -11.5 11.3
14:20 1028 30.36 857 25.31 0.4 32.7 40 -11.6 11.1
14:25 1028 30.36 857 25.31 0.3 32.6 42 -11.2 11.8
14:30 1028 30.36 857 25.31 0.3 32.6 41 -11.6 11.1
14:35 1028 30.36 857 25.31 0.5 32.9 41 -11.2 11.8
14:40 1028 30.36 857 25.31 0.6 33.1 42 -11 12.2
14:45 1028 30.36 857 25.31 0.2 32.4 40 -11.7 10.9
14:50 1028 30.36 857 25.31 0.3 32.6 41 -11.4 11.5
14:55 1028 30.36 857 25.31 0.4 32.6 40 -11.6 11.1
15:00 1028 30.36 857 25.31 0.3 32.6 40 -11.8 10.7
15:05 1028 30.36 857 25.31 0.1 32.2 41 -11.8 10.7
15:10 1028 30.36 857 25.31 0.1 32.2 43 -11 12.2
15:15 1028 30.36 857 25.31 0.6 33.1 39 -11.7 11
15:20 1028 30.36 857 25.31 0.7 33.3 40 -11.3 11.6
15:25 1028 30.36 857 25.31 1 33.8 39 -11.7 11
15:30 1028 30.36 857 25.31 0.7 33.3 40 -11.4 11.4
15:35 1028 30.36 857 25.31 0.4 32.8 41 -11.5 11.3
15:40 1028 30.36 857 25.31 0.5 32.9 41 -11.5 11.4
15:45 1028 30.36 857 25.31 0.3 32.5 41 -11.4 11.5
15:50 1028 30.36 857 25.31 0.1 32.2 42 -11.3 11.7
15:55 1028 30.36 857 25.31 0.5 33 41 -11.3 11.7
16:00 1027 30.33 857 25.31 0.6 33 41 -11.1 12
16:05 1027 30.33 857 25.31 0.2 32.3 43 -11 12.2
16:10 1027 30.33 857 25.31 -0.1 31.9 43 -11.3 11.6
16:15 1027 30.33 857 25.31 -0.6 30.9 44 -11.4 11.5
16:20 1027 30.33 856 25.28 -1.2 29.9 44 -11.9 10.6
16:25 1027 30.33 856 25.28 -1.2 29.8 45 -11.7 10.9
16:30 1027 30.33 856 25.28 -1.1 30 44 -11.9 10.6
16:35 1027 30.33 856 25.28 -1.6 29.1 47 -11.5 11.4
16:40 1027 30.33 856 25.28 -1.3 29.6 46 -11.5 11.4
16:45 1027 30.33 856 25.28 -1 30.2 47 -10.9 12.3
16:50 1027 30.33 856 25.28 -1 30.2 47 -10.8 12.6
16:55 1027 30.33 856 25.28 -1.2 29.9 48 -10.8 12.6
17:00 1027 30.33 856 25.28 -1.9 28.5 51 -10.9 12.4
17:05 1027 30.33 856 25.28 -2.2 28 50 -11.2 11.8
17:10 1027 30.33 856 25.28 -2.2 28 52 -10.9 12.4
17:15 1027 30.33 856 25.28 -2.4 27.6 53 -10.7 12.7
17:20 1027 30.33 856 25.28 -2.2 28.1 52 -10.9 12.4
17:25 1027 30.33 856 25.28 -2 28.4 52 -10.7 12.8
17:30 1027 30.33 856 25.28 -2.1 28.1 53 -10.6 12.9
17:35 1027 30.33 856 25.28 -2.3 27.8 53 -10.7 12.8
17:40 1027 30.33 856 25.28 -2.5 27.5 52 -11.1 12.1
17:45 1027 30.33 856 25.28 -2.6 27.4 53 -10.8 12.6
17:50 1026 30.3 856 25.28 -2.8 26.9 55 -10.6 13
17:55 1026 30.3 856 25.28 -2.9 26.8 55 -10.8 12.6
18:00 1026 30.3 856 25.28 -3.1 26.5 56 -10.7 12.8
18:05 1026 30.3 856 25.28 -3.1 26.4 54 -11.1 12.1
18:10 1026 30.3 855 25.25 -3 26.6 54 -11 12.3
18:15 1026 30.3 855 25.25 -3.4 26 57 -10.7 12.8
18:20 1026 30.3 855 25.25 -3.4 26 57 -10.8 12.6
18:25 1026 30.3 855 25.25 -3.6 25.4 59 -10.5 13.1
18:30 1026 30.3 855 25.25 -4 24.9 60 -10.6 13
18:35 1026 30.3 855 25.25 -3.8 25.1 60 -10.5 13.1
18:40 1026 30.3 855 25.25 -4 24.8 62 -10.3 13.5
18:45 1026 30.3 855 25.25 -4.2 24.4 63 -10.2 13.7
18:50 1026 30.3 855 25.25 -4.3 24.2 65 -9.9 14.1
18:55 1026 30.3 855 25.25 -4.6 23.7 67 -9.8 14.3
19:00 1026 30.3 855 25.25 -4.9 23.2 68 -9.8 14.3
19:05 1026 30.3 855 25.25 -5 23.1 68 -9.9 14.1
19:10 1026 30.3 855 25.25 -4.6 23.6 66 -10 14
19:15 1026 30.3 855 25.25 -4.3 24.2 67 -9.6 14.7
19:20 1026 30.3 855 25.25 -4.3 24.2 66 -9.8 14.4
19:25 1026 30.3 855 25.25 -4 24.8 65 -9.7 14.6
19:30 1026 30.3 855 25.25 -3.6 25.5 64 -9.4 15.1
19:35 1025 30.27 855 25.25 -3.9 24.9 67 -9.3 15.3
19:40 1025 30.27 855 25.25 -4.4 24 69 -9.3 15.3
19:45 1025 30.27 855 25.25 -4.1 24.6 67 -9.4 15
19:50 1025 30.27 855 25.25 -3.4 25.9 66 -8.9 16
19:55 1025 30.27 855 25.25 -3.1 26.4 66 -8.7 16.4
20:00 1025 30.27 855 25.25 -3.1 26.4 67 -8.4 16.8
20:05 1025 30.27 855 25.25 -3.5 25.8 69 -8.3 17
20:10 1025 30.27 854 25.22 -3.3 26.1 67 -8.5 16.7
20:15 1025 30.27 854 25.22 -3.5 25.6 69 -8.4 16.8
20:20 1025 30.27 854 25.22 -3.9 25 73 -8.1 17.5
20:25 1025 30.27 854 25.22 -4.2 24.4 73 -8.4 16.9
20:30 1025 30.27 854 25.22 -4 24.9 73 -8.2 17.3
20:35 1025 30.27 854 25.22 -3.7 25.3 72 -8.1 17.5
20:40 1025 30.27 854 25.22 -3.7 25.3 75 -7.6 18.3
20:45 1025 30.27 854 25.22 -3.4 25.8 72 -7.7 18.1
20:50 1025 30.27 854 25.22 -3.2 26.2 69 -8.2 17.2
20:55 1025 30.27 854 25.22 -3.1 26.4 70 -7.8 18
21:00 1025 30.27 854 25.22 -2.8 26.9 63 -8.8 16.1
21:05 1025 30.27 854 25.22 -2.3 27.9 64 -8.3 17.1
21:10 1025 30.27 854 25.22 -2.6 27.4 65 -8.3 17.1
21:15 1025 30.27 854 25.22 -3 26.6 68 -8.2 17.3
21:20 1025 30.27 854 25.22 -3.3 26 69 -8.3 17.1
21:25 1025 30.27 854 25.22 -3.4 25.9 68 -8.4 16.8
21:30 1025 30.27 854 25.22 -3.6 25.6 69 -8.4 16.9
21:35 1025 30.27 854 25.22 -3.2 26.2 69 -8.2 17.3
21:40 1025 30.27 854 25.22 -2.8 26.9 67 -8.2 17.3
21:45 1025 30.27 854 25.22 -3 26.5 68 -8.2 17.2
21:50 1025 30.27 854 25.22 -3.3 26 68 -8.5 16.7
21:55 1025 30.27 854 25.22 -3.3 26 67 -8.7 16.4
22:00 1025 30.27 854 25.22 -2.9 26.7 66 -8.4 16.9
22:05 1025 30.27 854 25.22 -3 26.6 67 -8.2 17.2
22:10 1025 30.27 854 25.22 -3.2 26.2 67 -8.4 16.8
22:15 1025 30.27 854 25.22 -3.3 26.1 67 -8.5 16.7
22:20 1025 30.27 854 25.22 -3.2 26.3 65 -8.9 15.9
22:25 1025 30.27 854 25.22 -3 26.6 65 -8.8 16.2
22:30 1025 30.27 854 25.22 -3.2 26.2 68 -8.3 17.1
22:35 1025 30.27 854 25.22 -3.8 25.1 70 -8.6 16.5
22:40 1025 30.27 854 25.22 -3.8 25.2 68 -8.9 16
22:45 1025 30.27 854 25.22 -3.7 25.3 68 -8.7 16.3
22:50 1025 30.27 854 25.22 -3.8 25.1 68 -8.8 16.1
22:55 1025 30.27 854 25.22 -3.8 25.2 69 -8.7 16.3
23:00 1025 30.27 854 25.22 -3.9 25.1 69 -8.7 16.4
23:05 1025 30.27 854 25.22 -3.8 25.1 69 -8.8 16.2
23:10 1025 30.27 854 25.22 -3.6 25.5 69 -8.6 16.6
23:15 1025 30.27 854 25.22 -3.5 25.8 70 -8.3 17.1
23:20 1025 30.27 854 25.22 -3.5 25.6 68 -8.5 16.6
23:25 1025 30.27 854 25.22 -3.5 25.8 70 -8.3 17.1
23:30 1025 30.27 854 25.22 -3.9 24.9 72 -8.2 17.3
23:35 1025 30.27 854 25.22 -4.2 24.4 75 -8.1 17.5
23:40 1025 30.27 854 25.22 -4.9 23.2 79 -8 17.6
23:45 1025 30.27 854 25.22 -5.3 22.5 80 -8.2 17.2
23:50 1025 30.27 854 25.22 -4.7 23.6 76 -8.2 17.2
23:55 1024 30.24 854 25.22 -4.6 23.7 75 -8.4 16.9
24:00 1025 30.27 854 25.22 -4.8 23.4 75 -8.5 16.8